Time;durP1;ratioP1;P1;durP2;ratioP2;P2;SDS_P1;SDS_P2;PMS_P1;PMS_P2;Temp;Humidity;BMP_temperature;BMP_pressure;BME280_temperature;BME280_humidity;BME280_pressure;Samples;Min_cycle;Max_cycle;Signal;HPM_P1;HPM_P2
2021/09/08 00:00:40;;;;;;;;;;;21.80;99.90;;;;;;5122296;27;19951;-80
2021/09/08 00:03:06;;;;;;;;;;;21.70;99.90;;;;;;5131486;27;19924;-80
2021/09/08 00:05:32;;;;;;;;;;;21.60;99.90;;;;;;5121054;27;19916;-80
2021/09/08 00:07:57;;;;;;;;;;;21.60;99.90;;;;;;5109269;27;19912;-80
2021/09/08 00:10:23;;;;;;;;;;;21.60;99.90;;;;;;5127660;27;19963;-80
2021/09/08 00:12:49;;;;;;;;;;;21.60;99.90;;;;;;5132057;27;20018;-80
2021/09/08 00:15:15;;;;;;;;;;;21.60;99.90;;;;;;5144454;27;19938;-80
2021/09/08 00:17:41;;;;;;;;;;;21.60;99.90;;;;;;5141512;27;19912;-80
2021/09/08 00:20:08;;;;;;;;;;;21.50;99.90;;;;;;5113185;27;19959;-81
2021/09/08 00:22:34;;;;;;;;;;;21.30;99.90;;;;;;5146891;27;19907;-80
2021/09/08 00:25:00;;;;;;;;;;;21.30;99.90;;;;;;5133820;27;19939;-80
2021/09/08 00:27:26;;;;;;;;;;;21.20;99.90;;;;;;5127090;27;19968;-80
2021/09/08 00:29:51;;;;;;;;;;;21.10;99.90;;;;;;5136704;27;19908;-80
2021/09/08 00:32:17;;;;;;;;;;;21.00;99.90;;;;;;5131764;27;20003;-80
2021/09/08 00:34:43;;;;;;;;;;;21.00;99.90;;;;;;5110864;27;19907;-80
2021/09/08 00:37:09;;;;;;;;;;;21.20;99.90;;;;;;5126245;27;19915;-80
2021/09/08 00:39:34;;;;;;;;;;;21.20;99.90;;;;;;5143723;27;19960;-80
2021/09/08 00:42:07;;;;;;;;;;;21.10;99.90;;;;;;5104711;28;19980;-80
2021/09/08 00:44:33;;;;;;;;;;;21.20;99.90;;;;;;5133325;27;19915;-82
2021/09/08 00:46:58;;;;;;;;;;;21.10;99.90;;;;;;5135379;27;20341;-80
2021/09/08 00:49:24;;;;;;;;;;;21.00;99.90;;;;;;5132991;27;20532;-80
2021/09/08 00:51:50;;;;;;;;;;;21.20;99.90;;;;;;5128445;27;20367;-81
2021/09/08 00:54:16;;;;;;;;;;;21.30;99.90;;;;;;5123738;27;19920;-80
2021/09/08 00:56:43;;;;;;;;;;;21.40;99.90;;;;;;5129075;27;19998;-80
2021/09/08 00:59:09;;;;;;;;;;;21.40;99.90;;;;;;5140761;27;19932;-80
2021/09/08 01:01:35;;;;;;;;;;;21.50;99.90;;;;;;5109973;27;19931;-82
2021/09/08 01:04:01;;;;;;;;;;;21.40;99.90;;;;;;5125532;27;19916;-80
2021/09/08 01:06:27;;;;;;;;;;;21.50;99.90;;;;;;5109726;27;19964;-80
2021/09/08 01:08:53;;;;;;;;;;;21.40;99.90;;;;;;5120490;27;19912;-82
2021/09/08 01:11:20;;;;;;;;;;;21.40;99.90;;;;;;5138794;27;19916;-80
2021/09/08 01:13:46;;;;;;;;;;;21.40;99.90;;;;;;5137032;27;19986;-80
2021/09/08 01:16:11;;;;;;;;;;;21.40;99.90;;;;;;5126293;27;19915;-80
2021/09/08 01:18:37;;;;;;;;;;;21.30;99.90;;;;;;5137142;27;19934;-80
2021/09/08 01:21:03;;;;;;;;;;;21.20;99.90;;;;;;5122039;27;19916;-80
2021/09/08 01:23:29;;;;;;;;;;;21.20;99.90;;;;;;5134482;27;19915;-80
2021/09/08 01:25:55;;;;;;;;;;;21.10;99.90;;;;;;5116445;27;19961;-79
2021/09/08 01:28:23;;;;;;;;;;;21.10;99.90;;;;;;5119304;27;20498;-79
2021/09/08 01:30:52;;;;;;;;;;;21.00;99.90;;;;;;5103869;28;20278;-80
2021/09/08 01:33:18;;;;;;;;;;;21.10;99.90;;;;;;5105379;27;19920;-80
2021/09/08 01:35:44;;;;;;;;;;;21.10;99.90;;;;;;5098075;28;19912;-80
2021/09/08 01:38:09;;;;;;;;;;;21.10;99.90;;;;;;5113812;27;19966;-79
2021/09/08 01:40:35;;;;;;;;;;;21.20;99.90;;;;;;5118091;27;20536;-80
2021/09/08 01:43:01;;;;;;;;;;;21.20;99.90;;;;;;5125341;27;20429;-79
2021/09/08 01:45:27;;;;;;;;;;;21.20;99.90;;;;;;5124532;27;20498;-80
2021/09/08 01:47:54;;;;;;;;;;;21.20;99.90;;;;;;5114606;27;19923;-79
2021/09/08 01:50:20;;;;;;;;;;;21.10;99.90;;;;;;5096280;28;19920;-79
2021/09/08 01:52:46;;;;;;;;;;;21.00;99.90;;;;;;5125247;27;20176;-80
2021/09/08 01:55:12;;;;;;;;;;;20.90;99.90;;;;;;5128976;27;19973;-79
2021/09/08 01:57:38;;;;;;;;;;;20.90;99.90;;;;;;5111203;27;19973;-79
2021/09/08 02:00:05;;;;;;;;;;;20.90;99.90;;;;;;5137516;27;19911;-79
2021/09/08 02:02:30;;;;;;;;;;;20.90;99.90;;;;;;5133152;28;19916;-80
2021/09/08 02:04:56;;;;;;;;;;;20.90;99.90;;;;;;5110817;28;19930;-80
2021/09/08 02:07:22;;;;;;;;;;;21.00;99.90;;;;;;5126588;28;19934;-79
2021/09/08 02:09:48;;;;;;;;;;;20.90;99.90;;;;;;5116096;28;19919;-80
2021/09/08 02:12:13;;;;;;;;;;;20.90;99.90;;;;;;5123264;28;19918;-80
2021/09/08 02:14:39;;;;;;;;;;;20.90;99.90;;;;;;5139443;28;19918;-80
2021/09/08 02:17:05;;;;;;;;;;;20.90;99.90;;;;;;5121849;28;19977;-80
2021/09/08 02:19:30;;;;;;;;;;;20.90;99.90;;;;;;5126045;28;19934;-79
2021/09/08 02:21:56;;;;;;;;;;;20.90;99.90;;;;;;5136557;28;19911;-79
2021/09/08 02:24:22;;;;;;;;;;;21.00;99.90;;;;;;5099737;28;19916;-79
2021/09/08 02:26:47;;;;;;;;;;;21.00;99.90;;;;;;5121207;28;19941;-80
2021/09/08 02:29:13;;;;;;;;;;;21.10;99.90;;;;;;5132069;28;19908;-80
2021/09/08 02:31:39;;;;;;;;;;;21.10;99.90;;;;;;5141759;28;19914;-79
2021/09/08 02:34:04;;;;;;;;;;;21.10;99.90;;;;;;5124599;28;20250;-80
2021/09/08 02:36:30;;;;;;;;;;;21.10;99.90;;;;;;5119605;28;19924;-79
2021/09/08 02:38:56;;;;;;;;;;;21.10;99.90;;;;;;5096104;28;20016;-80
2021/09/08 02:41:23;;;;;;;;;;;21.20;99.90;;;;;;5138562;28;19911;-79
2021/09/08 02:43:50;;;;;;;;;;;21.20;99.90;;;;;;5103053;28;20284;-80
2021/09/08 02:46:16;;;;;;;;;;;21.20;99.90;;;;;;5124485;28;19915;-80
2021/09/08 02:48:41;;;;;;;;;;;21.30;99.90;;;;;;5109848;28;19911;-80
2021/09/08 02:51:07;;;;;;;;;;;21.20;99.90;;;;;;5135037;28;20006;-81
2021/09/08 02:53:33;;;;;;;;;;;21.30;99.90;;;;;;5124604;28;19990;-81
2021/09/08 02:56:00;;;;;;;;;;;21.30;99.90;;;;;;5124961;28;19938;-80
2021/09/08 02:58:25;;;;;;;;;;;21.20;99.90;;;;;;5136021;28;19922;-81
2021/09/08 03:00:51;;;;;;;;;;;21.30;99.90;;;;;;5127688;28;19947;-80
2021/09/08 03:03:18;;;;;;;;;;;21.30;99.90;;;;;;5126281;28;19919;-80
2021/09/08 03:05:44;;;;;;;;;;;21.20;99.90;;;;;;5127075;28;19974;-80
2021/09/08 03:08:10;;;;;;;;;;;21.20;99.90;;;;;;5127885;28;19924;-81
2021/09/08 03:10:36;;;;;;;;;;;21.20;99.90;;;;;;5109789;27;19979;-80
2021/09/08 03:13:02;;;;;;;;;;;21.20;99.90;;;;;;5132536;27;19912;-80
2021/09/08 03:15:28;;;;;;;;;;;21.20;99.90;;;;;;5133229;27;19912;-80
2021/09/08 03:17:54;;;;;;;;;;;21.20;99.90;;;;;;5124108;27;19955;-80
2021/09/08 03:20:20;;;;;;;;;;;21.20;99.90;;;;;;5112459;28;19912;-80
2021/09/08 03:22:46;;;;;;;;;;;21.20;99.90;;;;;;5117397;27;19915;-80
2021/09/08 03:25:11;;;;;;;;;;;21.20;99.90;;;;;;5113397;27;19994;-80
2021/09/08 03:27:37;;;;;;;;;;;21.20;99.90;;;;;;5118562;27;19912;-80
2021/09/08 03:30:04;;;;;;;;;;;21.10;99.90;;;;;;5112975;27;20437;-80
2021/09/08 03:32:29;;;;;;;;;;;21.10;99.90;;;;;;5135145;27;19912;-80
2021/09/08 03:34:55;;;;;;;;;;;21.10;99.90;;;;;;5124702;27;19922;-81
2021/09/08 03:37:21;;;;;;;;;;;21.00;99.90;;;;;;5116775;27;19926;-80
2021/09/08 03:39:46;;;;;;;;;;;20.90;99.90;;;;;;5107863;27;19912;-80
2021/09/08 03:42:12;;;;;;;;;;;21.00;99.90;;;;;;5133646;27;19918;-80
2021/09/08 03:44:38;;;;;;;;;;;21.00;99.90;;;;;;5112718;28;19916;-80
2021/09/08 03:47:03;;;;;;;;;;;20.90;99.90;;;;;;5108317;27;20297;-80
2021/09/08 03:49:29;;;;;;;;;;;20.80;99.90;;;;;;5124767;27;19998;-80
2021/09/08 03:51:55;;;;;;;;;;;20.70;99.90;;;;;;5118419;27;19939;-80
2021/09/08 03:54:21;;;;;;;;;;;20.70;99.90;;;;;;5104625;28;19912;-80
2021/09/08 03:56:46;;;;;;;;;;;20.70;99.90;;;;;;5110528;28;19973;-80
2021/09/08 03:59:12;;;;;;;;;;;20.80;99.90;;;;;;5117533;28;19912;-80
2021/09/08 04:01:38;;;;;;;;;;;20.80;99.90;;;;;;5130586;27;20394;-80
2021/09/08 04:04:03;;;;;;;;;;;20.80;99.90;;;;;;5122407;27;20391;-81
2021/09/08 04:06:29;;;;;;;;;;;20.70;99.90;;;;;;5119542;27;19911;-80
2021/09/08 04:08:55;;;;;;;;;;;20.80;99.90;;;;;;5121464;27;19912;-80
2021/09/08 04:11:20;;;;;;;;;;;20.80;99.90;;;;;;5131901;27;19942;-80
2021/09/08 04:13:46;;;;;;;;;;;20.70;99.90;;;;;;5139796;27;19937;-80
2021/09/08 04:16:11;;;;;;;;;;;20.70;99.90;;;;;;5142592;27;19914;-80
2021/09/08 04:18:37;;;;;;;;;;;20.80;99.90;;;;;;5122085;27;19912;-79
2021/09/08 04:21:03;;;;;;;;;;;20.80;99.90;;;;;;5132113;27;19912;-79
2021/09/08 04:23:28;;;;;;;;;;;20.80;99.90;;;;;;5130773;27;20304;-80
2021/09/08 04:25:54;;;;;;;;;;;20.80;99.90;;;;;;5128387;27;19926;-80
2021/09/08 04:28:20;;;;;;;;;;;20.90;99.90;;;;;;5104430;27;19936;-81
2021/09/08 04:30:45;;;;;;;;;;;20.80;99.90;;;;;;5128219;27;19916;-81
2021/09/08 04:33:11;;;;;;;;;;;20.80;99.90;;;;;;5107141;27;19911;-80
2021/09/08 04:35:39;;;;;;;;;;;20.80;99.90;;;;;;5135263;27;20400;-80
2021/09/08 04:38:08;;;;;;;;;;;20.90;99.90;;;;;;5119452;27;19930;-81
2021/09/08 04:40:34;;;;;;;;;;;20.90;99.90;;;;;;5084910;28;19912;-83
2021/09/08 04:43:01;;;;;;;;;;;20.80;99.90;;;;;;5100527;27;20018;-81
2021/09/08 04:45:27;;;;;;;;;;;20.70;99.90;;;;;;5106424;28;19941;-81
2021/09/08 04:47:53;;;;;;;;;;;20.70;99.90;;;;;;5113192;28;19985;-80
2021/09/08 04:50:19;;;;;;;;;;;20.70;99.90;;;;;;5134897;27;19923;-80
2021/09/08 04:52:44;;;;;;;;;;;20.60;99.90;;;;;;5108593;28;20006;-80
2021/09/08 04:55:11;;;;;;;;;;;20.60;99.90;;;;;;5137000;27;20393;-81
2021/09/08 04:57:36;;;;;;;;;;;20.60;99.90;;;;;;5132685;27;19915;-80
2021/09/08 05:00:04;;;;;;;;;;;20.60;99.90;;;;;;5138897;27;19965;-80
2021/09/08 05:02:29;;;;;;;;;;;20.70;99.90;;;;;;5110221;27;19911;-79
2021/09/08 05:04:55;;;;;;;;;;;20.70;99.90;;;;;;5120657;28;19923;-80
2021/09/08 05:07:21;;;;;;;;;;;20.70;99.90;;;;;;5125405;27;19912;-81
2021/09/08 05:09:49;;;;;;;;;;;20.70;99.90;;;;;;5110989;27;19920;-80
2021/09/08 05:12:15;;;;;;;;;;;20.70;99.90;;;;;;5112365;27;20002;-80
2021/09/08 05:14:41;;;;;;;;;;;20.80;99.90;;;;;;5112750;27;19920;-80
2021/09/08 05:17:07;;;;;;;;;;;20.80;99.90;;;;;;5108821;28;19915;-83
2021/09/08 05:19:33;;;;;;;;;;;20.80;99.90;;;;;;5105835;28;19983;-81
2021/09/08 05:21:59;;;;;;;;;;;20.90;99.90;;;;;;5106466;28;19907;-80
2021/09/08 05:24:24;;;;;;;;;;;20.90;99.90;;;;;;5108208;27;19926;-80
2021/09/08 05:26:50;;;;;;;;;;;21.00;99.90;;;;;;5122101;27;19916;-80
2021/09/08 05:29:16;;;;;;;;;;;20.90;99.90;;;;;;5109006;27;19907;-80
2021/09/08 05:31:42;;;;;;;;;;;20.90;99.90;;;;;;5108187;27;19931;-81
2021/09/08 05:34:08;;;;;;;;;;;20.90;99.90;;;;;;5140735;27;20049;-81
2021/09/08 05:36:33;;;;;;;;;;;20.90;99.90;;;;;;5137071;27;19915;-80
2021/09/08 05:38:59;;;;;;;;;;;21.00;99.90;;;;;;5127636;27;19919;-80
2021/09/08 05:41:25;;;;;;;;;;;20.90;99.90;;;;;;5120548;27;19953;-79
2021/09/08 05:43:50;;;;;;;;;;;20.90;99.90;;;;;;5131142;27;20005;-80
2021/09/08 05:46:16;;;;;;;;;;;21.00;99.90;;;;;;5124316;27;19915;-80
2021/09/08 05:48:42;;;;;;;;;;;21.10;99.90;;;;;;5115134;27;20305;-77
2021/09/08 05:51:07;;;;;;;;;;;21.20;99.90;;;;;;5128045;27;19941;-80
2021/09/08 05:53:33;;;;;;;;;;;21.20;99.90;;;;;;5131507;27;19912;-78
2021/09/08 05:55:59;;;;;;;;;;;21.10;99.90;;;;;;5118931;27;19919;-76
2021/09/08 05:58:25;;;;;;;;;;;21.20;99.90;;;;;;5107277;27;20004;-79
2021/09/08 06:00:50;;;;;;;;;;;21.20;99.90;;;;;;5133501;27;19912;-77
2021/09/08 06:03:16;;;;;;;;;;;21.30;99.90;;;;;;5137465;27;19922;-77
2021/09/08 06:05:42;;;;;;;;;;;21.30;99.90;;;;;;5130046;28;19915;-79
2021/09/08 06:08:07;;;;;;;;;;;21.40;99.90;;;;;;5075602;28;20034;-77
2021/09/08 06:10:33;;;;;;;;;;;21.40;99.90;;;;;;5109419;28;19912;-79
2021/09/08 06:12:58;;;;;;;;;;;21.40;99.90;;;;;;5107188;28;19912;-79
2021/09/08 06:15:24;;;;;;;;;;;21.40;99.90;;;;;;5108015;28;20030;-78
2021/09/08 06:17:50;;;;;;;;;;;21.40;99.90;;;;;;5094160;28;19912;-78
2021/09/08 06:20:15;;;;;;;;;;;21.40;99.90;;;;;;5106846;28;19912;-78
2021/09/08 06:22:41;;;;;;;;;;;21.50;99.90;;;;;;5109854;28;20006;-77
2021/09/08 06:25:07;;;;;;;;;;;21.60;99.90;;;;;;5110263;28;19923;-78
2021/09/08 06:27:33;;;;;;;;;;;21.70;99.90;;;;;;5112710;28;19928;-78
2021/09/08 06:29:58;;;;;;;;;;;21.70;99.90;;;;;;5105062;28;19919;-78
2021/09/08 06:32:24;;;;;;;;;;;21.70;99.90;;;;;;5118498;28;19962;-78
2021/09/08 06:34:50;;;;;;;;;;;21.80;99.90;;;;;;5078616;28;19912;-78
2021/09/08 06:37:16;;;;;;;;;;;21.90;99.90;;;;;;5081051;28;19956;-78
2021/09/08 06:39:41;;;;;;;;;;;22.00;99.90;;;;;;5126233;28;19919;-77
2021/09/08 06:42:07;;;;;;;;;;;21.90;99.90;;;;;;5135545;28;20144;-78
2021/09/08 06:44:33;;;;;;;;;;;22.00;99.90;;;;;;5132418;28;19916;-80
2021/09/08 06:46:58;;;;;;;;;;;22.10;99.90;;;;;;5126991;27;20262;-78
2021/09/08 06:49:24;;;;;;;;;;;22.20;99.90;;;;;;5122341;27;19978;-78
2021/09/08 06:51:49;;;;;;;;;;;22.30;99.90;;;;;;5127692;27;19924;-78
2021/09/08 06:54:15;;;;;;;;;;;22.30;99.90;;;;;;5093235;28;20203;-77
2021/09/08 06:56:41;;;;;;;;;;;22.50;99.90;;;;;;5115219;28;19912;-77
2021/09/08 06:59:06;;;;;;;;;;;22.40;99.90;;;;;;5095631;28;20481;-77
2021/09/08 07:01:32;;;;;;;;;;;22.50;99.90;;;;;;5106071;28;19911;-77
2021/09/08 07:03:58;;;;;;;;;;;22.60;99.90;;;;;;5128087;27;19920;-80
2021/09/08 07:06:23;;;;;;;;;;;22.70;99.90;;;;;;5124631;28;19912;-77
2021/09/08 07:08:50;;;;;;;;;;;22.80;99.90;;;;;;5107342;27;19912;-78
2021/09/08 07:11:16;;;;;;;;;;;22.80;99.90;;;;;;5111089;28;19979;-79
2021/09/08 07:13:42;;;;;;;;;;;22.80;99.90;;;;;;5136702;27;19911;-78
2021/09/08 07:16:08;;;;;;;;;;;22.90;99.90;;;;;;5116596;27;19919;-79
2021/09/08 07:18:33;;;;;;;;;;;23.00;99.90;;;;;;5127736;27;19908;-78
2021/09/08 07:20:59;;;;;;;;;;;23.00;99.90;;;;;;5130245;27;19915;-79
2021/09/08 07:23:24;;;;;;;;;;;23.20;99.90;;;;;;5135358;27;19933;-78
2021/09/08 07:25:50;;;;;;;;;;;23.20;99.90;;;;;;5139611;27;19980;-78
2021/09/08 07:28:16;;;;;;;;;;;23.30;99.90;;;;;;5137558;27;19915;-80
2021/09/08 07:30:41;;;;;;;;;;;23.30;99.90;;;;;;5147362;27;19908;-77
2021/09/08 07:33:07;;;;;;;;;;;23.30;99.90;;;;;;5138056;27;20294;-78
2021/09/08 07:35:33;;;;;;;;;;;23.40;99.90;;;;;;5134816;27;19918;-78
2021/09/08 07:38:00;;;;;;;;;;;23.50;99.90;;;;;;5135323;27;19922;-77
2021/09/08 07:40:26;;;;;;;;;;;23.60;99.90;;;;;;5125548;28;19919;-78
2021/09/08 07:42:52;;;;;;;;;;;23.70;99.90;;;;;;5129972;28;19907;-79
2021/09/08 07:45:18;;;;;;;;;;;23.80;99.90;;;;;;5133656;27;19916;-78
2021/09/08 07:47:44;;;;;;;;;;;23.80;99.90;;;;;;5119926;27;19912;-79
2021/09/08 07:50:10;;;;;;;;;;;23.80;99.90;;;;;;5102328;28;19963;-79
2021/09/08 07:52:35;;;;;;;;;;;23.90;99.90;;;;;;5113520;27;19974;-79
2021/09/08 07:55:02;;;;;;;;;;;24.00;99.90;;;;;;5122678;27;19934;-78
2021/09/08 07:57:27;;;;;;;;;;;23.90;99.90;;;;;;5122981;27;19920;-79
2021/09/08 07:59:53;;;;;;;;;;;24.00;99.70;;;;;;5122300;27;20427;-78
2021/09/08 08:02:18;;;;;;;;;;;24.20;99.50;;;;;;5124384;27;19992;-78
2021/09/08 08:04:44;;;;;;;;;;;24.20;99.50;;;;;;5129504;27;19927;-79
2021/09/08 08:07:10;;;;;;;;;;;24.20;98.90;;;;;;5139736;27;19956;-79
2021/09/08 08:09:35;;;;;;;;;;;24.30;98.80;;;;;;5130468;27;19915;-78
2021/09/08 08:12:01;;;;;;;;;;;24.30;98.70;;;;;;5126142;27;20357;-78
2021/09/08 08:14:27;;;;;;;;;;;24.30;98.80;;;;;;5135916;27;19915;-79
2021/09/08 08:16:54;;;;;;;;;;;24.30;98.30;;;;;;5114606;27;19924;-80
2021/09/08 08:19:19;;;;;;;;;;;24.40;98.50;;;;;;5107412;27;19919;-79
2021/09/08 08:21:45;;;;;;;;;;;24.40;98.00;;;;;;5108850;27;19912;-79
2021/09/08 08:24:11;;;;;;;;;;;24.50;98.40;;;;;;5107738;27;19920;-79
2021/09/08 08:26:36;;;;;;;;;;;24.60;98.50;;;;;;5125353;27;20191;-79
2021/09/08 08:29:02;;;;;;;;;;;24.70;98.00;;;;;;5130664;27;19922;-80
2021/09/08 08:31:27;;;;;;;;;;;24.80;97.90;;;;;;5141900;27;19922;-80
2021/09/08 08:33:53;;;;;;;;;;;24.80;98.10;;;;;;5135161;27;19920;-78
2021/09/08 08:36:19;;;;;;;;;;;24.90;98.20;;;;;;5146612;27;20297;-80
2021/09/08 08:38:44;;;;;;;;;;;25.00;98.00;;;;;;5126911;27;19923;-79
2021/09/08 08:41:10;;;;;;;;;;;25.00;98.00;;;;;;5125167;27;19911;-80
2021/09/08 08:43:37;;;;;;;;;;;25.10;97.70;;;;;;5137175;27;20006;-80
2021/09/08 08:46:03;;;;;;;;;;;25.20;97.70;;;;;;5122662;27;19917;-78
2021/09/08 08:48:28;;;;;;;;;;;25.20;97.60;;;;;;5111332;28;20268;-79
2021/09/08 08:50:54;;;;;;;;;;;25.20;97.50;;;;;;5128353;27;19931;-80
2021/09/08 08:53:19;;;;;;;;;;;25.10;97.50;;;;;;5124522;27;19916;-79
2021/09/08 08:55:45;;;;;;;;;;;25.20;97.70;;;;;;5119378;28;19915;-80
2021/09/08 08:58:10;;;;;;;;;;;25.30;97.60;;;;;;5113203;27;19912;-79
2021/09/08 09:00:36;;;;;;;;;;;25.40;97.10;;;;;;5117152;27;19960;-79
2021/09/08 09:03:02;;;;;;;;;;;25.50;97.10;;;;;;5117009;27;20438;-79
2021/09/08 09:05:36;;;;;;;;;;;25.50;97.20;;;;;;5113922;27;20011;-79
2021/09/08 09:08:02;;;;;;;;;;;25.50;97.30;;;;;;5113790;28;19912;-80
2021/09/08 09:10:28;;;;;;;;;;;25.70;96.90;;;;;;5119244;27;19922;-79
2021/09/08 09:12:54;;;;;;;;;;;25.80;96.30;;;;;;5143623;27;19919;-80
2021/09/08 09:15:21;;;;;;;;;;;25.80;95.90;;;;;;5128772;27;19911;-80
2021/09/08 09:17:48;;;;;;;;;;;25.80;95.30;;;;;;5122098;27;19912;-78
2021/09/08 09:20:15;;;;;;;;;;;25.70;95.50;;;;;;5114949;27;19965;-79
2021/09/08 09:22:42;;;;;;;;;;;25.80;95.30;;;;;;5112114;27;20676;-79
2021/09/08 09:25:11;;;;;;;;;;;25.80;95.10;;;;;;5112181;27;20025;-80
2021/09/08 09:27:38;;;;;;;;;;;25.80;95.10;;;;;;5124097;27;19931;-80
2021/09/08 09:30:08;;;;;;;;;;;25.90;94.10;;;;;;5128849;27;19912;-79
2021/09/08 09:32:35;;;;;;;;;;;26.00;94.50;;;;;;5135021;27;20087;-80
2021/09/08 09:35:01;;;;;;;;;;;26.10;93.80;;;;;;5135071;27;19911;-78
2021/09/08 09:37:30;;;;;;;;;;;26.20;93.50;;;;;;5104896;27;19916;-76
2021/09/08 09:40:00;;;;;;;;;;;26.20;93.10;;;;;;5123191;27;20014;-79
2021/09/08 09:42:31;;;;;;;;;;;26.30;93.30;;;;;;5122076;27;19911;-76
2021/09/08 09:45:04;;;;;;;;;;;26.40;92.80;;;;;;5126777;27;19916;-75
2021/09/08 09:47:34;;;;;;;;;;;26.40;92.60;;;;;;5122028;27;19911;-75
2021/09/08 09:50:00;;;;;;;;;;;26.20;92.20;;;;;;5087391;28;19920;-78
2021/09/08 09:52:26;;;;;;;;;;;26.30;92.30;;;;;;5104296;27;19920;-78
2021/09/08 09:54:52;;;;;;;;;;;26.40;91.80;;;;;;5104785;28;19912;-77
2021/09/08 09:57:18;;;;;;;;;;;26.50;91.60;;;;;;5103081;28;19919;-76
2021/09/08 09:59:43;;;;;;;;;;;26.50;91.40;;;;;;5102042;28;19912;-77
2021/09/08 10:02:09;;;;;;;;;;;26.50;91.50;;;;;;5099842;28;19935;-75
2021/09/08 10:04:35;;;;;;;;;;;26.50;91.70;;;;;;5112869;28;20106;-78
2021/09/08 10:07:04;;;;;;;;;;;26.50;91.80;;;;;;5128193;28;19927;-75
2021/09/08 10:09:30;;;;;;;;;;;26.50;90.80;;;;;;5114155;28;19911;-75
2021/09/08 10:11:57;;;;;;;;;;;26.40;91.40;;;;;;5092707;28;19916;-75
2021/09/08 10:14:25;;;;;;;;;;;26.60;90.90;;;;;;5091507;28;19912;-76
2021/09/08 10:16:51;;;;;;;;;;;26.70;90.90;;;;;;5121655;28;19919;-75
2021/09/08 10:19:21;;;;;;;;;;;26.80;90.20;;;;;;5111088;28;19912;-75
2021/09/08 10:21:49;;;;;;;;;;;26.70;90.40;;;;;;5134941;27;20292;-75
2021/09/08 10:24:16;;;;;;;;;;;26.70;91.20;;;;;;5114416;27;20405;-77
2021/09/08 10:26:42;;;;;;;;;;;26.80;90.30;;;;;;5104324;28;20185;-76
2021/09/08 10:29:07;;;;;;;;;;;26.80;90.10;;;;;;5113309;27;19912;-76
2021/09/08 10:31:35;;;;;;;;;;;26.80;90.10;;;;;;5097715;27;19919;-75
2021/09/08 10:34:01;;;;;;;;;;;26.80;88.90;;;;;;5120877;27;20004;-75
2021/09/08 10:36:27;;;;;;;;;;;26.80;90.10;;;;;;5126117;27;19919;-75
2021/09/08 10:39:13;;;;;;;;;;;26.90;90.10;;;;;;5106101;27;19922;-76
2021/09/08 10:41:40;;;;;;;;;;;27.10;90.40;;;;;;5102425;27;19919;-76
2021/09/08 10:44:06;;;;;;;;;;;26.90;90.30;;;;;;5136789;27;20312;-76
2021/09/08 10:47:01;;;;;;;;;;;26.80;90.60;;;;;;5126726;27;19964;-75
2021/09/08 10:49:39;;;;;;;;;;;26.80;90.20;;;;;;5115133;27;19915;-76
2021/09/08 10:52:15;;;;;;;;;;;26.90;90.40;;;;;;5112955;27;19918;-77
2021/09/08 10:54:56;;;;;;;;;;;27.10;89.40;;;;;;5109509;27;19912;-76
2021/09/08 10:57:39;;;;;;;;;;;27.00;89.60;;;;;;5121906;27;19975;-75
2021/09/08 11:00:06;;;;;;;;;;;27.00;88.90;;;;;;5128951;27;20399;-76
2021/09/08 11:02:31;;;;;;;;;;;27.00;89.30;;;;;;5122053;27;19920;-78
2021/09/08 11:05:00;;;;;;;;;;;27.10;89.10;;;;;;5117805;27;19923;-77
2021/09/08 11:07:26;;;;;;;;;;;27.00;89.10;;;;;;5128686;27;20123;-80
2021/09/08 11:09:51;;;;;;;;;;;27.00;87.80;;;;;;5117482;27;19919;-75
2021/09/08 11:12:17;;;;;;;;;;;27.00;87.90;;;;;;5104829;27;20002;-76
2021/09/08 11:14:50;;;;;;;;;;;27.00;88.50;;;;;;5135749;27;19914;-76
2021/09/08 11:17:23;;;;;;;;;;;27.10;88.10;;;;;;5104242;27;20120;-76
2021/09/08 11:19:49;;;;;;;;;;;27.20;88.00;;;;;;5123882;27;19982;-76
2021/09/08 11:22:18;;;;;;;;;;;27.20;86.80;;;;;;5103724;27;19954;-76
2021/09/08 11:24:44;;;;;;;;;;;27.20;87.00;;;;;;5113704;27;19915;-76
2021/09/08 11:27:11;;;;;;;;;;;27.10;86.80;;;;;;5127046;27;20010;-76
2021/09/08 11:29:36;;;;;;;;;;;27.10;85.70;;;;;;5107296;28;19920;-76
2021/09/08 11:32:02;;;;;;;;;;;27.10;84.60;;;;;;5116950;27;19916;-76
2021/09/08 11:34:28;;;;;;;;;;;27.00;84.30;;;;;;5126152;27;20494;-77
2021/09/08 11:36:55;;;;;;;;;;;27.10;85.10;;;;;;5121116;27;20481;-76
2021/09/08 11:39:21;;;;;;;;;;;27.30;84.80;;;;;;5124372;27;19915;-75
2021/09/08 11:41:54;;;;;;;;;;;27.30;83.10;;;;;;5090882;28;20292;-76
2021/09/08 11:44:20;;;;;;;;;;;27.40;82.50;;;;;;5127131;27;19916;-76
2021/09/08 11:46:46;;;;;;;;;;;27.40;82.50;;;;;;5130025;27;19955;-76
2021/09/08 11:49:12;;;;;;;;;;;27.40;83.30;;;;;;5120102;27;19911;-76
2021/09/08 11:51:38;;;;;;;;;;;27.40;84.50;;;;;;5124307;27;19911;-75
2021/09/08 11:54:07;;;;;;;;;;;27.40;85.40;;;;;;5116295;27;19911;-77
2021/09/08 11:56:33;;;;;;;;;;;27.50;83.00;;;;;;5131765;27;19907;-76
2021/09/08 11:59:03;;;;;;;;;;;27.50;80.30;;;;;;5110767;27;19954;-76
2021/09/08 12:01:35;;;;;;;;;;;27.50;81.90;;;;;;5124714;27;19911;-76
2021/09/08 12:04:02;;;;;;;;;;;27.40;84.40;;;;;;5113825;27;20016;-76
2021/09/08 12:06:29;;;;;;;;;;;27.50;84.60;;;;;;5108268;27;20754;-76
2021/09/08 12:09:02;;;;;;;;;;;27.50;85.00;;;;;;5123594;27;19958;-76
2021/09/08 12:11:28;;;;;;;;;;;27.50;85.60;;;;;;5122786;27;19923;-76
2021/09/08 12:13:54;;;;;;;;;;;27.50;84.90;;;;;;5134240;27;20199;-76
2021/09/08 12:16:36;;;;;;;;;;;27.60;85.20;;;;;;5088663;28;19931;-78
2021/09/08 12:19:15;;;;;;;;;;;27.70;83.80;;;;;;5109035;27;19912;-77
2021/09/08 12:21:41;;;;;;;;;;;27.80;83.80;;;;;;5129996;27;19950;-76
2021/09/08 12:24:24;;;;;;;;;;;27.90;84.50;;;;;;5094694;28;19912;-76
2021/09/08 12:26:50;;;;;;;;;;;27.80;84.60;;;;;;5092221;27;20377;-76
2021/09/08 12:29:15;;;;;;;;;;;27.80;85.40;;;;;;5119649;27;19911;-76
2021/09/08 12:31:53;;;;;;;;;;;27.80;85.10;;;;;;5120720;27;20018;-76
2021/09/08 12:34:20;;;;;;;;;;;27.90;84.80;;;;;;5126298;27;19922;-76
2021/09/08 12:36:46;;;;;;;;;;;27.90;82.60;;;;;;5135342;27;19923;-75
2021/09/08 12:39:12;;;;;;;;;;;28.00;83.10;;;;;;5123384;27;19911;-75
2021/09/08 12:41:49;;;;;;;;;;;28.20;82.70;;;;;;5135415;27;19908;-76
2021/09/08 12:44:24;;;;;;;;;;;28.20;82.70;;;;;;5101825;28;19920;-76
2021/09/08 12:46:49;;;;;;;;;;;28.10;82.30;;;;;;5097631;27;19912;-77
2021/09/08 12:49:16;;;;;;;;;;;28.10;82.80;;;;;;5121198;27;19922;-76
2021/09/08 12:51:42;;;;;;;;;;;28.20;81.20;;;;;;5114377;27;19916;-80
2021/09/08 12:54:11;;;;;;;;;;;28.20;80.90;;;;;;5106102;27;19920;-78
2021/09/08 12:56:37;;;;;;;;;;;28.20;82.40;;;;;;5129046;27;19913;-76
2021/09/08 12:59:03;;;;;;;;;;;28.20;82.60;;;;;;5109134;27;19947;-75
2021/09/08 13:01:29;;;;;;;;;;;28.10;82.90;;;;;;5122947;27;19911;-76
2021/09/08 13:03:55;;;;;;;;;;;28.10;83.40;;;;;;5125003;27;19912;-75
2021/09/08 13:06:21;;;;;;;;;;;28.30;81.70;;;;;;5123468;27;20284;-75
2021/09/08 13:08:46;;;;;;;;;;;28.40;82.80;;;;;;5105306;27;19959;-76
2021/09/08 13:11:12;;;;;;;;;;;28.40;82.30;;;;;;5128352;27;20365;-76
2021/09/08 13:13:38;;;;;;;;;;;28.50;82.70;;;;;;5127531;27;19939;-76
2021/09/08 13:16:04;;;;;;;;;;;28.60;82.80;;;;;;5134573;27;19914;-75
2021/09/08 13:18:30;;;;;;;;;;;28.80;82.50;;;;;;5107588;28;20305;-76
2021/09/08 13:20:56;;;;;;;;;;;29.00;82.50;;;;;;5128396;27;19921;-76
2021/09/08 13:23:21;;;;;;;;;;;29.00;81.20;;;;;;5118402;27;19912;-75
2021/09/08 13:25:47;;;;;;;;;;;29.10;81.80;;;;;;5133643;27;19954;-76
2021/09/08 13:28:13;;;;;;;;;;;29.10;81.10;;;;;;5124885;27;20305;-76
2021/09/08 13:30:38;;;;;;;;;;;29.00;80.40;;;;;;5093670;28;19956;-76
2021/09/08 13:33:04;;;;;;;;;;;28.80;80.00;;;;;;5127848;27;20002;-75
2021/09/08 13:35:29;;;;;;;;;;;28.20;80.00;;;;;;5129713;27;19907;-77
2021/09/08 13:37:55;;;;;;;;;;;28.00;79.90;;;;;;5133637;27;20108;-76
2021/09/08 13:40:21;;;;;;;;;;;28.20;80.30;;;;;;5124957;27;19912;-76
2021/09/08 13:42:46;;;;;;;;;;;28.40;79.80;;;;;;5133303;27;19911;-76
2021/09/08 13:45:12;;;;;;;;;;;28.60;79.90;;;;;;5122751;27;19960;-75
2021/09/08 13:47:38;;;;;;;;;;;28.50;78.70;;;;;;5120807;27;19940;-76
2021/09/08 13:50:04;;;;;;;;;;;28.60;78.60;;;;;;5134068;27;19946;-76
2021/09/08 13:52:29;;;;;;;;;;;28.40;78.90;;;;;;5121593;27;19935;-75
2021/09/08 13:54:55;;;;;;;;;;;28.40;80.00;;;;;;5089648;28;20117;-75
2021/09/08 13:57:21;;;;;;;;;;;28.50;80.30;;;;;;5108506;27;20322;-75
2021/09/08 13:59:46;;;;;;;;;;;28.70;79.90;;;;;;5114390;28;20510;-76
2021/09/08 14:02:12;;;;;;;;;;;28.70;80.10;;;;;;5111784;27;19911;-75
2021/09/08 14:04:38;;;;;;;;;;;28.80;79.80;;;;;;5127048;28;20364;-76
2021/09/08 14:07:04;;;;;;;;;;;28.90;79.70;;;;;;5133726;27;19953;-76
2021/09/08 14:09:29;;;;;;;;;;;28.90;79.80;;;;;;5118289;28;19912;-76
2021/09/08 14:11:56;;;;;;;;;;;28.60;79.10;;;;;;5122096;28;20081;-75